sensor_id;sensor_type;location;lat;lon;timestamp;P1;durP1;ratioP1;P2;durP2;ratioP2
4547;SDS011;2286;51.570;7.090;2022-08-19T00:02:16;5.73;;;5.33;;
4547;SDS011;2286;51.570;7.090;2022-08-19T00:04:43;6.10;;;5.60;;
4547;SDS011;2286;51.570;7.090;2022-08-19T00:07:12;5.40;;;5.10;;
4547;SDS011;2286;51.570;7.090;2022-08-19T00:09:40;5.33;;;5.03;;
4547;SDS011;2286;51.570;7.090;2022-08-19T00:12:08;5.33;;;4.83;;
4547;SDS011;2286;51.570;7.090;2022-08-19T00:14:35;5.73;;;5.30;;
4547;SDS011;2286;51.570;7.090;2022-08-19T00:17:03;5.70;;;5.23;;
4547;SDS011;2286;51.570;7.090;2022-08-19T00:19:31;5.67;;;5.27;;
4547;SDS011;2286;51.570;7.090;2022-08-19T00:21:58;5.60;;;4.90;;
4547;SDS011;2286;51.570;7.090;2022-08-19T00:24:25;4.97;;;4.60;;
4547;SDS011;2286;51.570;7.090;2022-08-19T00:26:53;5.20;;;4.90;;
4547;SDS011;2286;51.570;7.090;2022-08-19T00:29:23;5.17;;;4.87;;
4547;SDS011;2286;51.570;7.090;2022-08-19T00:31:51;5.77;;;5.40;;
4547;SDS011;2286;51.570;7.090;2022-08-19T00:34:20;6.60;;;4.90;;
4547;SDS011;2286;51.570;7.090;2022-08-19T00:36:48;6.13;;;5.50;;
4547;SDS011;2286;51.570;7.090;2022-08-19T00:39:15;6.70;;;6.03;;
4547;SDS011;2286;51.570;7.090;2022-08-19T00:41:42;6.20;;;5.70;;
4547;SDS011;2286;51.570;7.090;2022-08-19T00:44:13;6.20;;;5.73;;
4547;SDS011;2286;51.570;7.090;2022-08-19T00:46:46;6.10;;;5.70;;
4547;SDS011;2286;51.570;7.090;2022-08-19T00:49:15;6.70;;;6.13;;
4547;SDS011;2286;51.570;7.090;2022-08-19T00:51:45;6.87;;;6.27;;
4547;SDS011;2286;51.570;7.090;2022-08-19T00:54:15;6.70;;;6.30;;
4547;SDS011;2286;51.570;7.090;2022-08-19T00:56:42;7.07;;;6.60;;
4547;SDS011;2286;51.570;7.090;2022-08-19T00:59:11;6.40;;;6.00;;
4547;SDS011;2286;51.570;7.090;2022-08-19T01:01:39;7.70;;;7.10;;
4547;SDS011;2286;51.570;7.090;2022-08-19T01:04:09;7.00;;;6.50;;
4547;SDS011;2286;51.570;7.090;2022-08-19T01:06:36;7.17;;;6.57;;
4547;SDS011;2286;51.570;7.090;2022-08-19T01:09:05;6.70;;;6.20;;
4547;SDS011;2286;51.570;7.090;2022-08-19T01:11:34;7.30;;;6.80;;
4547;SDS011;2286;51.570;7.090;2022-08-19T01:14:04;6.60;;;6.10;;
4547;SDS011;2286;51.570;7.090;2022-08-19T01:16:32;7.30;;;6.80;;
4547;SDS011;2286;51.570;7.090;2022-08-19T01:19:00;7.40;;;7.00;;
4547;SDS011;2286;51.570;7.090;2022-08-19T01:21:30;7.70;;;7.10;;
4547;SDS011;2286;51.570;7.090;2022-08-19T01:24:02;7.40;;;6.90;;
4547;SDS011;2286;51.570;7.090;2022-08-19T01:26:29;7.50;;;7.00;;
4547;SDS011;2286;51.570;7.090;2022-08-19T01:28:57;7.70;;;6.90;;
4547;SDS011;2286;51.570;7.090;2022-08-19T01:31:27;7.70;;;7.30;;
4547;SDS011;2286;51.570;7.090;2022-08-19T01:33:56;7.23;;;6.60;;
4547;SDS011;2286;51.570;7.090;2022-08-19T01:36:24;7.67;;;7.13;;
4547;SDS011;2286;51.570;7.090;2022-08-19T01:38:53;6.87;;;6.37;;
4547;SDS011;2286;51.570;7.090;2022-08-19T01:41:21;7.57;;;7.07;;
4547;SDS011;2286;51.570;7.090;2022-08-19T01:43:48;7.97;;;7.37;;
4547;SDS011;2286;51.570;7.090;2022-08-19T01:46:16;7.50;;;6.80;;
4547;SDS011;2286;51.570;7.090;2022-08-19T01:48:44;8.47;;;7.70;;
4547;SDS011;2286;51.570;7.090;2022-08-19T01:51:13;7.00;;;6.50;;
4547;SDS011;2286;51.570;7.090;2022-08-19T01:53:40;7.00;;;6.50;;
4547;SDS011;2286;51.570;7.090;2022-08-19T01:56:07;7.03;;;6.57;;
4547;SDS011;2286;51.570;7.090;2022-08-19T01:58:37;7.87;;;7.23;;
4547;SDS011;2286;51.570;7.090;2022-08-19T02:01:07;7.00;;;6.50;;
4547;SDS011;2286;51.570;7.090;2022-08-19T02:03:34;7.77;;;7.17;;
4547;SDS011;2286;51.570;7.090;2022-08-19T02:06:02;8.60;;;7.90;;
4547;SDS011;2286;51.570;7.090;2022-08-19T02:08:30;8.07;;;7.47;;
4547;SDS011;2286;51.570;7.090;2022-08-19T02:10:58;7.77;;;7.17;;
4547;SDS011;2286;51.570;7.090;2022-08-19T02:13:25;7.77;;;7.23;;
4547;SDS011;2286;51.570;7.090;2022-08-19T02:15:53;8.03;;;7.53;;
4547;SDS011;2286;51.570;7.090;2022-08-19T02:18:20;7.23;;;6.63;;
4547;SDS011;2286;51.570;7.090;2022-08-19T02:20:47;8.03;;;7.40;;
4547;SDS011;2286;51.570;7.090;2022-08-19T02:23:15;8.70;;;7.47;;
4547;SDS011;2286;51.570;7.090;2022-08-19T02:25:45;8.83;;;8.13;;
4547;SDS011;2286;51.570;7.090;2022-08-19T02:28:13;9.17;;;8.20;;
4547;SDS011;2286;51.570;7.090;2022-08-19T02:30:41;9.00;;;8.30;;
4547;SDS011;2286;51.570;7.090;2022-08-19T02:33:10;8.80;;;8.10;;
4547;SDS011;2286;51.570;7.090;2022-08-19T02:35:36;8.20;;;7.50;;
4547;SDS011;2286;51.570;7.090;2022-08-19T02:38:08;8.50;;;7.77;;
4547;SDS011;2286;51.570;7.090;2022-08-19T02:40:54;9.10;;;8.40;;
4547;SDS011;2286;51.570;7.090;2022-08-19T02:43:22;9.17;;;8.57;;
4547;SDS011;2286;51.570;7.090;2022-08-19T02:45:51;8.67;;;8.10;;
4547;SDS011;2286;51.570;7.090;2022-08-19T02:48:20;11.43;;;10.73;;
4547;SDS011;2286;51.570;7.090;2022-08-19T02:50:49;12.10;;;11.30;;
4547;SDS011;2286;51.570;7.090;2022-08-19T02:53:20;10.10;;;9.40;;
4547;SDS011;2286;51.570;7.090;2022-08-19T02:55:47;9.73;;;9.03;;
4547;SDS011;2286;51.570;7.090;2022-08-19T02:58:15;10.60;;;9.80;;
4547;SDS011;2286;51.570;7.090;2022-08-19T03:00:43;13.30;;;12.20;;
4547;SDS011;2286;51.570;7.090;2022-08-19T03:03:11;12.70;;;11.70;;
4547;SDS011;2286;51.570;7.090;2022-08-19T03:05:40;13.50;;;12.50;;
4547;SDS011;2286;51.570;7.090;2022-08-19T03:08:07;12.77;;;11.87;;
4547;SDS011;2286;51.570;7.090;2022-08-19T03:10:40;11.87;;;11.07;;
4547;SDS011;2286;51.570;7.090;2022-08-19T03:13:10;12.43;;;11.63;;
4547;SDS011;2286;51.570;7.090;2022-08-19T03:15:41;12.43;;;11.53;;
4547;SDS011;2286;51.570;7.090;2022-08-19T03:18:10;13.10;;;12.00;;
4547;SDS011;2286;51.570;7.090;2022-08-19T03:20:43;12.47;;;11.57;;
4547;SDS011;2286;51.570;7.090;2022-08-19T03:23:12;12.73;;;11.70;;
4547;SDS011;2286;51.570;7.090;2022-08-19T03:25:41;13.10;;;12.07;;
4547;SDS011;2286;51.570;7.090;2022-08-19T03:28:09;12.50;;;11.43;;
4547;SDS011;2286;51.570;7.090;2022-08-19T03:30:37;12.47;;;11.47;;
4547;SDS011;2286;51.570;7.090;2022-08-19T03:33:05;14.30;;;13.10;;
4547;SDS011;2286;51.570;7.090;2022-08-19T03:35:32;14.03;;;12.90;;
4547;SDS011;2286;51.570;7.090;2022-08-19T03:38:03;12.93;;;12.03;;
4547;SDS011;2286;51.570;7.090;2022-08-19T03:40:30;13.30;;;12.30;;
4547;SDS011;2286;51.570;7.090;2022-08-19T03:42:57;14.57;;;13.47;;
4547;SDS011;2286;51.570;7.090;2022-08-19T03:45:24;14.23;;;13.20;;
4547;SDS011;2286;51.570;7.090;2022-08-19T03:47:52;14.00;;;13.00;;
4547;SDS011;2286;51.570;7.090;2022-08-19T03:50:19;13.47;;;12.37;;
4547;SDS011;2286;51.570;7.090;2022-08-19T03:52:47;13.03;;;11.93;;
4547;SDS011;2286;51.570;7.090;2022-08-19T03:55:17;13.63;;;12.53;;
4547;SDS011;2286;51.570;7.090;2022-08-19T03:57:44;13.67;;;12.50;;
4547;SDS011;2286;51.570;7.090;2022-08-19T04:00:13;12.87;;;11.80;;
4547;SDS011;2286;51.570;7.090;2022-08-19T04:02:40;13.93;;;12.50;;
4547;SDS011;2286;51.570;7.090;2022-08-19T04:05:08;12.70;;;11.50;;
4547;SDS011;2286;51.570;7.090;2022-08-19T04:07:35;13.23;;;11.93;;
4547;SDS011;2286;51.570;7.090;2022-08-19T04:10:03;13.23;;;12.03;;
4547;SDS011;2286;51.570;7.090;2022-08-19T04:12:31;13.63;;;12.43;;
4547;SDS011;2286;51.570;7.090;2022-08-19T04:14:58;11.50;;;10.40;;
4547;SDS011;2286;51.570;7.090;2022-08-19T04:17:25;13.90;;;12.80;;
4547;SDS011;2286;51.570;7.090;2022-08-19T04:19:52;12.33;;;11.43;;
4547;SDS011;2286;51.570;7.090;2022-08-19T04:22:19;13.30;;;12.20;;
4547;SDS011;2286;51.570;7.090;2022-08-19T04:24:46;12.63;;;11.60;;
4547;SDS011;2286;51.570;7.090;2022-08-19T04:27:13;12.13;;;11.20;;
4547;SDS011;2286;51.570;7.090;2022-08-19T04:29:42;12.47;;;11.47;;
4547;SDS011;2286;51.570;7.090;2022-08-19T04:32:09;13.63;;;12.60;;
4547;SDS011;2286;51.570;7.090;2022-08-19T04:34:37;13.90;;;12.60;;
4547;SDS011;2286;51.570;7.090;2022-08-19T04:37:04;13.93;;;12.73;;
4547;SDS011;2286;51.570;7.090;2022-08-19T04:39:37;12.80;;;11.90;;
4547;SDS011;2286;51.570;7.090;2022-08-19T04:42:21;13.00;;;12.00;;
4547;SDS011;2286;51.570;7.090;2022-08-19T04:45:09;11.57;;;10.77;;
4547;SDS011;2286;51.570;7.090;2022-08-19T04:47:38;13.53;;;12.30;;
4547;SDS011;2286;51.570;7.090;2022-08-19T04:50:06;12.93;;;11.63;;
4547;SDS011;2286;51.570;7.090;2022-08-19T04:52:34;13.00;;;11.90;;
4547;SDS011;2286;51.570;7.090;2022-08-19T04:55:01;13.10;;;12.10;;
4547;SDS011;2286;51.570;7.090;2022-08-19T04:57:31;12.13;;;11.03;;
4547;SDS011;2286;51.570;7.090;2022-08-19T04:59:58;11.87;;;10.87;;
4547;SDS011;2286;51.570;7.090;2022-08-19T05:02:26;12.80;;;11.70;;
4547;SDS011;2286;51.570;7.090;2022-08-19T05:04:56;12.87;;;11.57;;
4547;SDS011;2286;51.570;7.090;2022-08-19T05:07:25;13.73;;;12.63;;
4547;SDS011;2286;51.570;7.090;2022-08-19T05:09:53;13.30;;;12.30;;
4547;SDS011;2286;51.570;7.090;2022-08-19T05:12:20;15.37;;;14.07;;
4547;SDS011;2286;51.570;7.090;2022-08-19T05:14:47;14.70;;;13.43;;
4547;SDS011;2286;51.570;7.090;2022-08-19T05:17:14;14.00;;;12.80;;
4547;SDS011;2286;51.570;7.090;2022-08-19T05:19:42;14.50;;;13.20;;
4547;SDS011;2286;51.570;7.090;2022-08-19T05:22:27;14.93;;;13.60;;
4547;SDS011;2286;51.570;7.090;2022-08-19T05:25:02;14.67;;;13.43;;
4547;SDS011;2286;51.570;7.090;2022-08-19T05:27:31;14.70;;;13.30;;
4547;SDS011;2286;51.570;7.090;2022-08-19T05:29:58;14.00;;;12.73;;
4547;SDS011;2286;51.570;7.090;2022-08-19T05:32:26;17.10;;;15.57;;
4547;SDS011;2286;51.570;7.090;2022-08-19T05:34:55;14.37;;;13.00;;
4547;SDS011;2286;51.570;7.090;2022-08-19T05:37:22;15.73;;;14.27;;
4547;SDS011;2286;51.570;7.090;2022-08-19T05:39:51;15.60;;;14.23;;
4547;SDS011;2286;51.570;7.090;2022-08-19T05:42:19;15.53;;;13.97;;
4547;SDS011;2286;51.570;7.090;2022-08-19T05:44:47;15.00;;;13.60;;
4547;SDS011;2286;51.570;7.090;2022-08-19T05:47:15;16.67;;;15.17;;
4547;SDS011;2286;51.570;7.090;2022-08-19T05:49:44;15.80;;;14.40;;
4547;SDS011;2286;51.570;7.090;2022-08-19T05:52:13;16.70;;;15.10;;
4547;SDS011;2286;51.570;7.090;2022-08-19T05:54:41;15.23;;;13.90;;
4547;SDS011;2286;51.570;7.090;2022-08-19T05:57:10;15.47;;;13.97;;
4547;SDS011;2286;51.570;7.090;2022-08-19T05:59:37;17.40;;;15.87;;
4547;SDS011;2286;51.570;7.090;2022-08-19T06:02:05;16.67;;;14.97;;
4547;SDS011;2286;51.570;7.090;2022-08-19T06:04:32;15.87;;;14.00;;
4547;SDS011;2286;51.570;7.090;2022-08-19T06:06:59;16.30;;;14.93;;
4547;SDS011;2286;51.570;7.090;2022-08-19T06:09:29;19.20;;;17.23;;
4547;SDS011;2286;51.570;7.090;2022-08-19T06:11:56;19.77;;;17.90;;
4547;SDS011;2286;51.570;7.090;2022-08-19T06:14:26;21.37;;;19.23;;
4547;SDS011;2286;51.570;7.090;2022-08-19T06:16:55;20.23;;;18.43;;
4547;SDS011;2286;51.570;7.090;2022-08-19T06:19:26;20.20;;;18.23;;
4547;SDS011;2286;51.570;7.090;2022-08-19T06:21:55;21.10;;;19.07;;
4547;SDS011;2286;51.570;7.090;2022-08-19T06:24:24;23.47;;;21.23;;
4547;SDS011;2286;51.570;7.090;2022-08-19T06:26:54;22.17;;;20.07;;
4547;SDS011;2286;51.570;7.090;2022-08-19T06:29:23;24.43;;;22.13;;
4547;SDS011;2286;51.570;7.090;2022-08-19T06:31:53;24.13;;;21.67;;
4547;SDS011;2286;51.570;7.090;2022-08-19T06:34:23;23.33;;;21.13;;
4547;SDS011;2286;51.570;7.090;2022-08-19T06:36:51;25.57;;;22.20;;
4547;SDS011;2286;51.570;7.090;2022-08-19T06:39:20;22.93;;;20.83;;
4547;SDS011;2286;51.570;7.090;2022-08-19T06:41:49;25.20;;;22.93;;
4547;SDS011;2286;51.570;7.090;2022-08-19T06:44:20;24.33;;;22.20;;
4547;SDS011;2286;51.570;7.090;2022-08-19T06:46:48;24.07;;;21.73;;
4547;SDS011;2286;51.570;7.090;2022-08-19T06:49:16;25.57;;;22.87;;
4547;SDS011;2286;51.570;7.090;2022-08-19T06:51:43;25.53;;;23.13;;
4547;SDS011;2286;51.570;7.090;2022-08-19T06:54:12;26.03;;;23.63;;
4547;SDS011;2286;51.570;7.090;2022-08-19T06:56:39;25.87;;;23.50;;
4547;SDS011;2286;51.570;7.090;2022-08-19T06:59:08;25.63;;;21.90;;
4547;SDS011;2286;51.570;7.090;2022-08-19T07:01:39;24.50;;;22.10;;
4547;SDS011;2286;51.570;7.090;2022-08-19T07:04:09;23.83;;;21.40;;
4547;SDS011;2286;51.570;7.090;2022-08-19T07:06:36;26.17;;;22.67;;
4547;SDS011;2286;51.570;7.090;2022-08-19T07:09:03;25.43;;;22.60;;
4547;SDS011;2286;51.570;7.090;2022-08-19T07:11:31;24.10;;;21.80;;
4547;SDS011;2286;51.570;7.090;2022-08-19T07:13:58;25.67;;;22.63;;
4547;SDS011;2286;51.570;7.090;2022-08-19T07:16:25;23.57;;;21.10;;
4547;SDS011;2286;51.570;7.090;2022-08-19T07:18:54;23.07;;;20.77;;
4547;SDS011;2286;51.570;7.090;2022-08-19T07:21:23;23.17;;;20.60;;
4547;SDS011;2286;51.570;7.090;2022-08-19T07:23:53;22.97;;;20.13;;
4547;SDS011;2286;51.570;7.090;2022-08-19T07:26:22;22.70;;;20.40;;
4547;SDS011;2286;51.570;7.090;2022-08-19T07:28:51;21.43;;;19.20;;
4547;SDS011;2286;51.570;7.090;2022-08-19T07:31:19;21.37;;;18.83;;
4547;SDS011;2286;51.570;7.090;2022-08-19T07:33:48;22.10;;;19.70;;
4547;SDS011;2286;51.570;7.090;2022-08-19T07:36:18;20.73;;;18.53;;
4547;SDS011;2286;51.570;7.090;2022-08-19T07:38:48;19.63;;;17.83;;
4547;SDS011;2286;51.570;7.090;2022-08-19T07:41:17;20.10;;;17.90;;
4547;SDS011;2286;51.570;7.090;2022-08-19T07:43:46;21.07;;;18.93;;
4547;SDS011;2286;51.570;7.090;2022-08-19T07:46:13;24.53;;;17.90;;
4547;SDS011;2286;51.570;7.090;2022-08-19T07:48:41;19.63;;;17.70;;
4547;SDS011;2286;51.570;7.090;2022-08-19T07:51:12;19.00;;;17.10;;
4547;SDS011;2286;51.570;7.090;2022-08-19T07:53:41;22.93;;;16.47;;
4547;SDS011;2286;51.570;7.090;2022-08-19T07:56:10;17.70;;;16.07;;
4547;SDS011;2286;51.570;7.090;2022-08-19T07:58:38;15.47;;;14.23;;
4547;SDS011;2286;51.570;7.090;2022-08-19T08:01:08;17.23;;;15.53;;
4547;SDS011;2286;51.570;7.090;2022-08-19T08:03:37;18.00;;;16.10;;
4547;SDS011;2286;51.570;7.090;2022-08-19T08:06:21;16.40;;;14.93;;
4547;SDS011;2286;51.570;7.090;2022-08-19T08:09:07;17.23;;;15.57;;
4547;SDS011;2286;51.570;7.090;2022-08-19T08:11:41;18.97;;;17.17;;
4547;SDS011;2286;51.570;7.090;2022-08-19T08:14:14;17.00;;;15.50;;
4547;SDS011;2286;51.570;7.090;2022-08-19T08:16:44;19.07;;;17.53;;
4547;SDS011;2286;51.570;7.090;2022-08-19T08:19:11;17.13;;;15.53;;
4547;SDS011;2286;51.570;7.090;2022-08-19T08:21:40;19.40;;;17.67;;
4547;SDS011;2286;51.570;7.090;2022-08-19T08:24:09;18.10;;;16.53;;
4547;SDS011;2286;51.570;7.090;2022-08-19T08:26:37;17.33;;;15.83;;
4547;SDS011;2286;51.570;7.090;2022-08-19T08:29:04;18.10;;;16.47;;
4547;SDS011;2286;51.570;7.090;2022-08-19T08:31:32;18.20;;;16.67;;
4547;SDS011;2286;51.570;7.090;2022-08-19T08:33:59;19.07;;;17.30;;
4547;SDS011;2286;51.570;7.090;2022-08-19T08:36:26;18.77;;;16.90;;
4547;SDS011;2286;51.570;7.090;2022-08-19T08:38:53;17.33;;;15.93;;
4547;SDS011;2286;51.570;7.090;2022-08-19T08:41:25;18.73;;;17.13;;
4547;SDS011;2286;51.570;7.090;2022-08-19T08:43:57;17.77;;;16.17;;
4547;SDS011;2286;51.570;7.090;2022-08-19T08:46:25;19.87;;;18.30;;
4547;SDS011;2286;51.570;7.090;2022-08-19T08:48:57;20.77;;;18.60;;
4547;SDS011;2286;51.570;7.090;2022-08-19T08:51:32;21.23;;;19.23;;
4547;SDS011;2286;51.570;7.090;2022-08-19T08:54:04;20.00;;;18.00;;
4547;SDS011;2286;51.570;7.090;2022-08-19T08:56:34;17.63;;;16.13;;
4547;SDS011;2286;51.570;7.090;2022-08-19T08:59:03;16.90;;;15.20;;
4547;SDS011;2286;51.570;7.090;2022-08-19T09:01:35;15.77;;;14.40;;
4547;SDS011;2286;51.570;7.090;2022-08-19T09:04:03;20.77;;;19.07;;
4547;SDS011;2286;51.570;7.090;2022-08-19T09:06:36;18.80;;;17.40;;
4547;SDS011;2286;51.570;7.090;2022-08-19T09:09:11;17.90;;;16.40;;
4547;SDS011;2286;51.570;7.090;2022-08-19T09:11:47;19.30;;;17.40;;
4547;SDS011;2286;51.570;7.090;2022-08-19T09:14:27;18.13;;;16.40;;
4547;SDS011;2286;51.570;7.090;2022-08-19T09:17:02;19.03;;;17.43;;
4547;SDS011;2286;51.570;7.090;2022-08-19T09:19:33;17.60;;;16.00;;
4547;SDS011;2286;51.570;7.090;2022-08-19T09:22:01;20.20;;;18.40;;
4547;SDS011;2286;51.570;7.090;2022-08-19T09:24:28;18.70;;;16.23;;
4547;SDS011;2286;51.570;7.090;2022-08-19T09:26:56;18.70;;;16.90;;
4547;SDS011;2286;51.570;7.090;2022-08-19T09:29:23;19.03;;;17.40;;
4547;SDS011;2286;51.570;7.090;2022-08-19T09:31:50;19.93;;;18.20;;
4547;SDS011;2286;51.570;7.090;2022-08-19T09:34:17;19.20;;;17.50;;
4547;SDS011;2286;51.570;7.090;2022-08-19T09:36:44;19.20;;;17.30;;
4547;SDS011;2286;51.570;7.090;2022-08-19T09:39:11;19.03;;;17.20;;
4547;SDS011;2286;51.570;7.090;2022-08-19T09:41:38;18.50;;;16.77;;
4547;SDS011;2286;51.570;7.090;2022-08-19T09:44:07;17.83;;;16.43;;
4547;SDS011;2286;51.570;7.090;2022-08-19T09:46:33;17.37;;;15.53;;
4547;SDS011;2286;51.570;7.090;2022-08-19T09:49:00;21.17;;;19.30;;
4547;SDS011;2286;51.570;7.090;2022-08-19T09:51:29;22.10;;;20.30;;
4547;SDS011;2286;51.570;7.090;2022-08-19T09:53:59;21.43;;;19.23;;
4547;SDS011;2286;51.570;7.090;2022-08-19T09:56:27;18.50;;;16.87;;
4547;SDS011;2286;51.570;7.090;2022-08-19T09:58:55;19.37;;;17.33;;
4547;SDS011;2286;51.570;7.090;2022-08-19T10:01:26;16.97;;;15.43;;
4547;SDS011;2286;51.570;7.090;2022-08-19T10:03:55;15.90;;;14.67;;
4547;SDS011;2286;51.570;7.090;2022-08-19T10:06:25;13.63;;;12.63;;
4547;SDS011;2286;51.570;7.090;2022-08-19T10:08:55;15.77;;;14.47;;
4547;SDS011;2286;51.570;7.090;2022-08-19T10:11:22;15.47;;;14.00;;
4547;SDS011;2286;51.570;7.090;2022-08-19T10:13:49;15.13;;;13.83;;
4547;SDS011;2286;51.570;7.090;2022-08-19T10:16:17;18.27;;;16.67;;
4547;SDS011;2286;51.570;7.090;2022-08-19T10:18:48;16.63;;;14.57;;
4547;SDS011;2286;51.570;7.090;2022-08-19T10:21:16;17.27;;;15.73;;
4547;SDS011;2286;51.570;7.090;2022-08-19T10:23:47;17.30;;;15.63;;
4547;SDS011;2286;51.570;7.090;2022-08-19T10:26:16;17.30;;;15.67;;
4547;SDS011;2286;51.570;7.090;2022-08-19T10:28:46;14.60;;;13.30;;
4547;SDS011;2286;51.570;7.090;2022-08-19T10:31:13;14.97;;;13.87;;
4547;SDS011;2286;51.570;7.090;2022-08-19T10:33:42;15.20;;;14.00;;
4547;SDS011;2286;51.570;7.090;2022-08-19T10:36:12;15.80;;;14.43;;
4547;SDS011;2286;51.570;7.090;2022-08-19T10:38:42;14.70;;;13.50;;
4547;SDS011;2286;51.570;7.090;2022-08-19T10:41:11;15.47;;;14.17;;
4547;SDS011;2286;51.570;7.090;2022-08-19T10:43:39;15.83;;;14.53;;
4547;SDS011;2286;51.570;7.090;2022-08-19T10:46:07;16.60;;;15.00;;
4547;SDS011;2286;51.570;7.090;2022-08-19T10:48:35;17.77;;;16.17;;
4547;SDS011;2286;51.570;7.090;2022-08-19T10:51:02;16.10;;;14.70;;
4547;SDS011;2286;51.570;7.090;2022-08-19T10:53:48;18.80;;;16.87;;
4547;SDS011;2286;51.570;7.090;2022-08-19T10:56:15;18.60;;;16.77;;
4547;SDS011;2286;51.570;7.090;2022-08-19T10:59:00;17.50;;;15.90;;
4547;SDS011;2286;51.570;7.090;2022-08-19T11:01:28;17.03;;;15.63;;
4547;SDS011;2286;51.570;7.090;2022-08-19T11:03:58;17.40;;;15.80;;
4547;SDS011;2286;51.570;7.090;2022-08-19T11:06:26;14.70;;;13.50;;
4547;SDS011;2286;51.570;7.090;2022-08-19T11:08:54;18.33;;;16.47;;
4547;SDS011;2286;51.570;7.090;2022-08-19T11:11:21;18.30;;;16.83;;
4547;SDS011;2286;51.570;7.090;2022-08-19T11:13:49;17.90;;;14.63;;
4547;SDS011;2286;51.570;7.090;2022-08-19T11:16:16;17.60;;;16.13;;
4547;SDS011;2286;51.570;7.090;2022-08-19T11:18:47;13.50;;;12.50;;
4547;SDS011;2286;51.570;7.090;2022-08-19T11:21:16;14.53;;;13.23;;
4547;SDS011;2286;51.570;7.090;2022-08-19T11:23:46;16.60;;;15.30;;
4547;SDS011;2286;51.570;7.090;2022-08-19T11:26:17;16.23;;;14.97;;
4547;SDS011;2286;51.570;7.090;2022-08-19T11:28:45;13.30;;;12.40;;
4547;SDS011;2286;51.570;7.090;2022-08-19T11:31:13;13.33;;;12.20;;
4547;SDS011;2286;51.570;7.090;2022-08-19T11:33:41;13.70;;;12.60;;
4547;SDS011;2286;51.570;7.090;2022-08-19T11:36:09;15.63;;;14.33;;
4547;SDS011;2286;51.570;7.090;2022-08-19T11:38:36;13.80;;;12.70;;
4547;SDS011;2286;51.570;7.090;2022-08-19T11:41:04;13.97;;;12.70;;
4547;SDS011;2286;51.570;7.090;2022-08-19T11:43:34;13.90;;;12.73;;
4547;SDS011;2286;51.570;7.090;2022-08-19T11:46:03;14.73;;;13.53;;
4547;SDS011;2286;51.570;7.090;2022-08-19T11:48:31;15.73;;;14.60;;
4547;SDS011;2286;51.570;7.090;2022-08-19T11:50:58;17.23;;;15.67;;
4547;SDS011;2286;51.570;7.090;2022-08-19T11:53:30;17.23;;;15.73;;
4547;SDS011;2286;51.570;7.090;2022-08-19T11:55:57;17.50;;;16.27;;
4547;SDS011;2286;51.570;7.090;2022-08-19T11:58:24;14.87;;;13.77;;
4547;SDS011;2286;51.570;7.090;2022-08-19T12:00:52;16.67;;;15.27;;
4547;SDS011;2286;51.570;7.090;2022-08-19T12:03:19;15.70;;;14.53;;
4547;SDS011;2286;51.570;7.090;2022-08-19T12:05:46;14.60;;;13.50;;
4547;SDS011;2286;51.570;7.090;2022-08-19T12:08:13;16.50;;;15.07;;
4547;SDS011;2286;51.570;7.090;2022-08-19T12:10:41;16.27;;;15.07;;
4547;SDS011;2286;51.570;7.090;2022-08-19T12:13:09;13.93;;;12.63;;
4547;SDS011;2286;51.570;7.090;2022-08-19T12:15:38;13.33;;;12.43;;
4547;SDS011;2286;51.570;7.090;2022-08-19T12:18:08;12.87;;;11.87;;
4547;SDS011;2286;51.570;7.090;2022-08-19T12:20:35;13.30;;;12.20;;
4547;SDS011;2286;51.570;7.090;2022-08-19T12:23:03;12.77;;;11.87;;
4547;SDS011;2286;51.570;7.090;2022-08-19T12:25:30;10.60;;;9.90;;
4547;SDS011;2286;51.570;7.090;2022-08-19T12:27:58;10.50;;;9.70;;
4547;SDS011;2286;51.570;7.090;2022-08-19T12:30:25;11.60;;;9.83;;
4547;SDS011;2286;51.570;7.090;2022-08-19T12:32:52;11.43;;;10.33;;
4547;SDS011;2286;51.570;7.090;2022-08-19T12:35:20;11.73;;;10.80;;
4547;SDS011;2286;51.570;7.090;2022-08-19T12:37:47;10.90;;;10.10;;
4547;SDS011;2286;51.570;7.090;2022-08-19T12:40:15;11.77;;;10.77;;
4547;SDS011;2286;51.570;7.090;2022-08-19T12:42:44;9.73;;;8.93;;
4547;SDS011;2286;51.570;7.090;2022-08-19T12:45:12;11.03;;;10.23;;
4547;SDS011;2286;51.570;7.090;2022-08-19T12:47:39;10.70;;;9.67;;
4547;SDS011;2286;51.570;7.090;2022-08-19T12:50:07;9.63;;;8.93;;
4547;SDS011;2286;51.570;7.090;2022-08-19T12:52:36;11.00;;;9.17;;
4547;SDS011;2286;51.570;7.090;2022-08-19T12:55:03;10.03;;;9.13;;
4547;SDS011;2286;51.570;7.090;2022-08-19T12:57:33;11.27;;;10.13;;
4547;SDS011;2286;51.570;7.090;2022-08-19T13:00:03;10.17;;;9.17;;
4547;SDS011;2286;51.570;7.090;2022-08-19T13:02:34;13.90;;;8.90;;
4547;SDS011;2286;51.570;7.090;2022-08-19T13:05:01;8.83;;;8.00;;
4547;SDS011;2286;51.570;7.090;2022-08-19T13:07:31;8.07;;;7.40;;
4547;SDS011;2286;51.570;7.090;2022-08-19T13:09:59;7.67;;;7.17;;
4547;SDS011;2286;51.570;7.090;2022-08-19T13:12:26;7.77;;;7.00;;
4547;SDS011;2286;51.570;7.090;2022-08-19T13:14:54;8.53;;;7.73;;
4547;SDS011;2286;51.570;7.090;2022-08-19T13:17:21;7.57;;;6.93;;
4547;SDS011;2286;51.570;7.090;2022-08-19T13:19:48;6.40;;;5.80;;
4547;SDS011;2286;51.570;7.090;2022-08-19T13:22:16;6.67;;;6.27;;
4547;SDS011;2286;51.570;7.090;2022-08-19T13:24:43;6.70;;;6.13;;
4547;SDS011;2286;51.570;7.090;2022-08-19T13:27:11;6.57;;;6.00;;
4547;SDS011;2286;51.570;7.090;2022-08-19T13:29:39;7.53;;;5.80;;
4547;SDS011;2286;51.570;7.090;2022-08-19T13:32:23;6.47;;;5.80;;
4547;SDS011;2286;51.570;7.090;2022-08-19T13:35:07;5.40;;;5.00;;
4547;SDS011;2286;51.570;7.090;2022-08-19T13:37:34;7.43;;;5.53;;
4547;SDS011;2286;51.570;7.090;2022-08-19T13:40:08;4.87;;;4.47;;
4547;SDS011;2286;51.570;7.090;2022-08-19T13:42:39;5.27;;;4.97;;
4547;SDS011;2286;51.570;7.090;2022-08-19T13:45:06;6.30;;;5.70;;
4547;SDS011;2286;51.570;7.090;2022-08-19T13:47:34;5.40;;;4.90;;
4547;SDS011;2286;51.570;7.090;2022-08-19T13:50:07;5.80;;;5.20;;
4547;SDS011;2286;51.570;7.090;2022-08-19T13:52:35;6.73;;;6.03;;
4547;SDS011;2286;51.570;7.090;2022-08-19T13:55:03;5.50;;;5.10;;
4547;SDS011;2286;51.570;7.090;2022-08-19T13:57:31;7.73;;;5.50;;
4547;SDS011;2286;51.570;7.090;2022-08-19T13:59:59;6.53;;;5.93;;
4547;SDS011;2286;51.570;7.090;2022-08-19T14:02:26;5.60;;;4.70;;
4547;SDS011;2286;51.570;7.090;2022-08-19T14:04:53;6.47;;;5.33;;
4547;SDS011;2286;51.570;7.090;2022-08-19T14:07:20;5.47;;;4.97;;
4547;SDS011;2286;51.570;7.090;2022-08-19T14:09:49;5.37;;;4.87;;
4547;SDS011;2286;51.570;7.090;2022-08-19T14:12:18;5.70;;;4.57;;
4547;SDS011;2286;51.570;7.090;2022-08-19T14:14:45;5.83;;;4.63;;
4547;SDS011;2286;51.570;7.090;2022-08-19T14:17:14;5.67;;;5.07;;
4547;SDS011;2286;51.570;7.090;2022-08-19T14:19:41;4.80;;;4.40;;
4547;SDS011;2286;51.570;7.090;2022-08-19T14:22:08;5.10;;;4.23;;
4547;SDS011;2286;51.570;7.090;2022-08-19T14:24:36;4.57;;;3.93;;
4547;SDS011;2286;51.570;7.090;2022-08-19T14:27:05;4.93;;;4.40;;
4547;SDS011;2286;51.570;7.090;2022-08-19T14:29:32;4.37;;;4.07;;
4547;SDS011;2286;51.570;7.090;2022-08-19T14:31:59;4.90;;;4.60;;
4547;SDS011;2286;51.570;7.090;2022-08-19T14:34:27;5.87;;;4.50;;
4547;SDS011;2286;51.570;7.090;2022-08-19T14:36:56;4.70;;;4.40;;
4547;SDS011;2286;51.570;7.090;2022-08-19T14:39:23;5.20;;;4.70;;
4547;SDS011;2286;51.570;7.090;2022-08-19T14:41:50;5.60;;;5.10;;
4547;SDS011;2286;51.570;7.090;2022-08-19T14:44:17;5.33;;;5.03;;
4547;SDS011;2286;51.570;7.090;2022-08-19T14:46:44;5.27;;;4.97;;
4547;SDS011;2286;51.570;7.090;2022-08-19T14:49:11;5.87;;;5.47;;
4547;SDS011;2286;51.570;7.090;2022-08-19T14:51:40;6.23;;;5.63;;
4547;SDS011;2286;51.570;7.090;2022-08-19T14:54:07;6.70;;;5.00;;
4547;SDS011;2286;51.570;7.090;2022-08-19T14:56:34;7.03;;;6.33;;
4547;SDS011;2286;51.570;7.090;2022-08-19T14:59:01;6.83;;;6.33;;
4547;SDS011;2286;51.570;7.090;2022-08-19T15:01:28;6.63;;;6.20;;
4547;SDS011;2286;51.570;7.090;2022-08-19T15:03:55;6.60;;;6.10;;
4547;SDS011;2286;51.570;7.090;2022-08-19T15:06:22;8.97;;;8.07;;
4547;SDS011;2286;51.570;7.090;2022-08-19T15:08:51;7.70;;;7.10;;